sensor_id;sensor_type;location;lat;lon;timestamp;P1;durP1;ratioP1;P2;durP2;ratioP2
66384;SDS011;53426;55.872;37.462;2023-05-02T00:00:45;3.00;;;2.70;;
66384;SDS011;53426;55.872;37.462;2023-05-02T00:03:11;4.53;;;2.85;;
66384;SDS011;53426;55.872;37.462;2023-05-02T00:05:37;2.88;;;2.67;;
66384;SDS011;53426;55.872;37.462;2023-05-02T00:08:03;2.78;;;2.58;;
66384;SDS011;53426;55.872;37.462;2023-05-02T00:10:29;2.45;;;2.28;;
66384;SDS011;53426;55.872;37.462;2023-05-02T00:12:55;2.78;;;2.45;;
66384;SDS011;53426;55.872;37.462;2023-05-02T00:15:21;2.63;;;2.47;;
66384;SDS011;53426;55.872;37.462;2023-05-02T00:17:47;2.40;;;2.20;;
66384;SDS011;53426;55.872;37.462;2023-05-02T00:20:13;3.63;;;2.88;;
66384;SDS011;53426;55.872;37.462;2023-05-02T00:22:39;2.95;;;2.25;;
66384;SDS011;53426;55.872;37.462;2023-05-02T00:25:05;2.70;;;2.42;;
66384;SDS011;53426;55.872;37.462;2023-05-02T00:27:32;2.58;;;2.38;;
66384;SDS011;53426;55.872;37.462;2023-05-02T00:29:59;2.97;;;2.58;;
66384;SDS011;53426;55.872;37.462;2023-05-02T00:32:26;2.70;;;2.22;;
66384;SDS011;53426;55.872;37.462;2023-05-02T00:34:52;3.88;;;2.25;;
66384;SDS011;53426;55.872;37.462;2023-05-02T00:37:18;2.95;;;2.33;;
66384;SDS011;53426;55.872;37.462;2023-05-02T00:39:44;2.42;;;2.28;;
66384;SDS011;53426;55.872;37.462;2023-05-02T00:42:10;3.00;;;2.17;;
66384;SDS011;53426;55.872;37.462;2023-05-02T00:44:36;2.58;;;2.38;;
66384;SDS011;53426;55.872;37.462;2023-05-02T00:47:02;2.15;;;2.05;;
66384;SDS011;53426;55.872;37.462;2023-05-02T00:49:29;2.25;;;1.83;;
66384;SDS011;53426;55.872;37.462;2023-05-02T00:51:56;2.40;;;2.20;;
66384;SDS011;53426;55.872;37.462;2023-05-02T00:54:23;2.45;;;2.25;;
66384;SDS011;53426;55.872;37.462;2023-05-02T00:56:50;2.38;;;2.17;;
66384;SDS011;53426;55.872;37.462;2023-05-02T00:59:16;1.98;;;1.88;;
66384;SDS011;53426;55.872;37.462;2023-05-02T01:04:39;2.55;;;2.08;;
66384;SDS011;53426;55.872;37.462;2023-05-02T01:12:25;7.90;;;2.40;;
66384;SDS011;53426;55.872;37.462;2023-05-02T01:14:56;2.58;;;2.22;;
66384;SDS011;53426;55.872;37.462;2023-05-02T01:17:25;2.28;;;2.08;;
66384;SDS011;53426;55.872;37.462;2023-05-02T01:19:58;7.40;;;2.42;;
66384;SDS011;53426;55.872;37.462;2023-05-02T01:22:29;3.00;;;2.80;;
66384;SDS011;53426;55.872;37.462;2023-05-02T01:30:32;2.80;;;2.60;;
66384;SDS011;53426;55.872;37.462;2023-05-02T01:33:00;2.80;;;2.60;;
66384;SDS011;53426;55.872;37.462;2023-05-02T01:35:27;2.80;;;2.45;;
66384;SDS011;53426;55.872;37.462;2023-05-02T01:37:55;2.67;;;2.40;;
66384;SDS011;53426;55.872;37.462;2023-05-02T01:40:22;2.50;;;2.33;;
66384;SDS011;53426;55.872;37.462;2023-05-02T01:42:50;3.53;;;2.50;;
66384;SDS011;53426;55.872;37.462;2023-05-02T01:45:18;2.63;;;2.42;;
66384;SDS011;53426;55.872;37.462;2023-05-02T01:47:46;2.95;;;2.40;;
66384;SDS011;53426;55.872;37.462;2023-05-02T01:50:16;2.92;;;2.70;;
66384;SDS011;53426;55.872;37.462;2023-05-02T01:52:47;5.03;;;2.78;;
66384;SDS011;53426;55.872;37.462;2023-05-02T01:55:16;6.18;;;2.50;;
66384;SDS011;53426;55.872;37.462;2023-05-02T01:57:43;3.50;;;2.20;;
66384;SDS011;53426;55.872;37.462;2023-05-02T02:00:12;2.30;;;2.20;;
66384;SDS011;53426;55.872;37.462;2023-05-02T02:02:41;2.42;;;2.22;;
66384;SDS011;53426;55.872;37.462;2023-05-02T02:05:12;4.25;;;2.10;;
66384;SDS011;53426;55.872;37.462;2023-05-02T02:07:39;2.40;;;2.08;;
66384;SDS011;53426;55.872;37.462;2023-05-02T02:10:05;2.47;;;2.30;;
66384;SDS011;53426;55.872;37.462;2023-05-02T02:12:41;2.13;;;2.03;;
66384;SDS011;53426;55.872;37.462;2023-05-02T02:15:20;2.50;;;2.30;;
66384;SDS011;53426;55.872;37.462;2023-05-02T02:17:58;7.63;;;2.47;;
66384;SDS011;53426;55.872;37.462;2023-05-02T02:20:27;2.75;;;2.53;;
66384;SDS011;53426;55.872;37.462;2023-05-02T02:22:54;5.03;;;2.70;;
66384;SDS011;53426;55.872;37.462;2023-05-02T02:25:25;8.48;;;2.65;;
66384;SDS011;53426;55.872;37.462;2023-05-02T02:27:52;3.67;;;2.55;;
66384;SDS011;53426;55.872;37.462;2023-05-02T02:30:18;5.45;;;2.83;;
66384;SDS011;53426;55.872;37.462;2023-05-02T02:32:44;3.35;;;2.78;;
66384;SDS011;53426;55.872;37.462;2023-05-02T02:35:11;3.10;;;2.80;;
66384;SDS011;53426;55.872;37.462;2023-05-02T02:37:43;3.17;;;2.92;;
66384;SDS011;53426;55.872;37.462;2023-05-02T02:45:37;8.27;;;3.03;;
66384;SDS011;53426;55.872;37.462;2023-05-02T02:48:33;2.90;;;2.70;;
66384;SDS011;53426;55.872;37.462;2023-05-02T02:51:09;3.55;;;2.63;;
66384;SDS011;53426;55.872;37.462;2023-05-02T02:56:28;3.38;;;2.92;;
66384;SDS011;53426;55.872;37.462;2023-05-02T02:59:04;3.33;;;2.47;;
66384;SDS011;53426;55.872;37.462;2023-05-02T03:01:37;3.83;;;2.65;;
66384;SDS011;53426;55.872;37.462;2023-05-02T03:04:06;7.03;;;3.35;;
66384;SDS011;53426;55.872;37.462;2023-05-02T03:06:35;2.88;;;2.67;;
66384;SDS011;53426;55.872;37.462;2023-05-02T03:09:03;4.13;;;2.55;;
66384;SDS011;53426;55.872;37.462;2023-05-02T03:11:29;4.32;;;2.70;;
66384;SDS011;53426;55.872;37.462;2023-05-02T03:13:56;5.20;;;2.90;;
66384;SDS011;53426;55.872;37.462;2023-05-02T03:16:39;4.43;;;2.50;;
66384;SDS011;53426;55.872;37.462;2023-05-02T03:19:09;12.82;;;2.58;;
66384;SDS011;53426;55.872;37.462;2023-05-02T03:21:36;4.53;;;2.30;;
66384;SDS011;53426;55.872;37.462;2023-05-02T03:24:11;3.63;;;2.95;;
66384;SDS011;53426;55.872;37.462;2023-05-02T03:26:38;7.03;;;2.88;;
66384;SDS011;53426;55.872;37.462;2023-05-02T03:29:07;4.03;;;2.50;;
66384;SDS011;53426;55.872;37.462;2023-05-02T03:31:37;4.45;;;3.00;;
66384;SDS011;53426;55.872;37.462;2023-05-02T03:34:04;2.60;;;2.40;;
66384;SDS011;53426;55.872;37.462;2023-05-02T03:36:30;4.25;;;2.58;;
66384;SDS011;53426;55.872;37.462;2023-05-02T03:38:56;3.65;;;2.55;;
66384;SDS011;53426;55.872;37.462;2023-05-02T03:41:23;4.47;;;2.50;;
66384;SDS011;53426;55.872;37.462;2023-05-02T03:43:59;2.60;;;2.40;;
66384;SDS011;53426;55.872;37.462;2023-05-02T03:46:26;3.63;;;1.90;;
66384;SDS011;53426;55.872;37.462;2023-05-02T03:48:53;4.80;;;2.20;;
66384;SDS011;53426;55.872;37.462;2023-05-02T03:51:22;1.98;;;1.80;;
66384;SDS011;53426;55.872;37.462;2023-05-02T03:53:51;10.48;;;2.30;;
66384;SDS011;53426;55.872;37.462;2023-05-02T03:56:17;1.90;;;1.80;;
66384;SDS011;53426;55.872;37.462;2023-05-02T03:58:55;3.40;;;2.03;;
66384;SDS011;53426;55.872;37.462;2023-05-02T04:01:24;2.33;;;2.13;;
66384;SDS011;53426;55.872;37.462;2023-05-02T04:03:51;2.17;;;1.98;;
66384;SDS011;53426;55.872;37.462;2023-05-02T04:06:21;2.83;;;2.17;;
66384;SDS011;53426;55.872;37.462;2023-05-02T04:08:53;2.58;;;2.28;;
66384;SDS011;53426;55.872;37.462;2023-05-02T04:11:19;2.53;;;2.00;;
66384;SDS011;53426;55.872;37.462;2023-05-02T04:13:46;3.72;;;2.08;;
66384;SDS011;53426;55.872;37.462;2023-05-02T04:16:12;5.82;;;2.30;;
66384;SDS011;53426;55.872;37.462;2023-05-02T04:18:41;2.30;;;2.10;;
66384;SDS011;53426;55.872;37.462;2023-05-02T04:21:08;6.20;;;2.10;;
66384;SDS011;53426;55.872;37.462;2023-05-02T04:23:37;3.42;;;2.17;;
66384;SDS011;53426;55.872;37.462;2023-05-02T04:26:08;6.03;;;2.05;;
66384;SDS011;53426;55.872;37.462;2023-05-02T04:28:44;8.40;;;2.67;;
66384;SDS011;53426;55.872;37.462;2023-05-02T04:31:13;5.40;;;2.42;;
66384;SDS011;53426;55.872;37.462;2023-05-02T04:33:40;8.57;;;2.63;;
66384;SDS011;53426;55.872;37.462;2023-05-02T04:36:06;3.17;;;2.10;;
66384;SDS011;53426;55.872;37.462;2023-05-02T04:38:36;10.02;;;2.40;;
66384;SDS011;53426;55.872;37.462;2023-05-02T04:41:02;7.50;;;2.63;;
66384;SDS011;53426;55.872;37.462;2023-05-02T04:43:38;8.82;;;2.63;;
66384;SDS011;53426;55.872;37.462;2023-05-02T04:46:06;5.18;;;2.13;;
66384;SDS011;53426;55.872;37.462;2023-05-02T04:48:36;3.40;;;2.22;;
66384;SDS011;53426;55.872;37.462;2023-05-02T04:51:09;14.85;;;2.42;;
66384;SDS011;53426;55.872;37.462;2023-05-02T04:53:36;5.53;;;2.55;;
66384;SDS011;53426;55.872;37.462;2023-05-02T05:02:15;6.82;;;2.60;;
66384;SDS011;53426;55.872;37.462;2023-05-02T05:04:41;3.08;;;2.40;;
66384;SDS011;53426;55.872;37.462;2023-05-02T05:07:08;4.75;;;2.20;;
66384;SDS011;53426;55.872;37.462;2023-05-02T05:09:34;4.70;;;2.58;;
66384;SDS011;53426;55.872;37.462;2023-05-02T05:12:00;4.05;;;2.42;;
66384;SDS011;53426;55.872;37.462;2023-05-02T05:14:28;7.63;;;3.40;;
66384;SDS011;53426;55.872;37.462;2023-05-02T05:16:55;5.50;;;2.30;;
66384;SDS011;53426;55.872;37.462;2023-05-02T05:19:23;7.40;;;2.40;;
66384;SDS011;53426;55.872;37.462;2023-05-02T05:22:07;16.60;;;3.10;;
66384;SDS011;53426;55.872;37.462;2023-05-02T05:24:34;6.60;;;2.80;;
66384;SDS011;53426;55.872;37.462;2023-05-02T05:27:00;7.30;;;3.13;;
66384;SDS011;53426;55.872;37.462;2023-05-02T05:29:29;12.98;;;2.78;;
66384;SDS011;53426;55.872;37.462;2023-05-02T05:31:58;8.90;;;2.80;;
66384;SDS011;53426;55.872;37.462;2023-05-02T05:34:24;5.05;;;2.33;;
66384;SDS011;53426;55.872;37.462;2023-05-02T05:36:55;4.90;;;3.00;;
66384;SDS011;53426;55.872;37.462;2023-05-02T05:39:21;6.20;;;3.00;;
66384;SDS011;53426;55.872;37.462;2023-05-02T05:41:50;6.90;;;2.50;;
66384;SDS011;53426;55.872;37.462;2023-05-02T05:44:17;7.35;;;2.65;;
66384;SDS011;53426;55.872;37.462;2023-05-02T05:46:46;7.28;;;2.40;;
66384;SDS011;53426;55.872;37.462;2023-05-02T05:49:14;4.18;;;2.30;;
66384;SDS011;53426;55.872;37.462;2023-05-02T05:51:43;3.25;;;2.20;;
66384;SDS011;53426;55.872;37.462;2023-05-02T05:54:09;5.60;;;2.20;;
66384;SDS011;53426;55.872;37.462;2023-05-02T05:56:36;5.72;;;1.70;;
66384;SDS011;53426;55.872;37.462;2023-05-02T05:59:10;4.03;;;1.92;;
66384;SDS011;53426;55.872;37.462;2023-05-02T06:01:36;4.13;;;2.22;;
66384;SDS011;53426;55.872;37.462;2023-05-02T06:04:03;8.10;;;2.08;;
66384;SDS011;53426;55.872;37.462;2023-05-02T06:06:33;7.43;;;2.00;;
66384;SDS011;53426;55.872;37.462;2023-05-02T06:09:02;10.52;;;2.10;;
66384;SDS011;53426;55.872;37.462;2023-05-02T06:11:30;5.55;;;2.20;;
66384;SDS011;53426;55.872;37.462;2023-05-02T06:13:56;3.33;;;2.10;;
66384;SDS011;53426;55.872;37.462;2023-05-02T06:16:23;4.13;;;1.85;;
66384;SDS011;53426;55.872;37.462;2023-05-02T06:18:51;1.88;;;1.70;;
66384;SDS011;53426;55.872;37.462;2023-05-02T06:21:18;5.97;;;1.70;;
66384;SDS011;53426;55.872;37.462;2023-05-02T06:23:45;2.53;;;1.90;;
66384;SDS011;53426;55.872;37.462;2023-05-02T06:26:11;4.53;;;1.98;;
66384;SDS011;53426;55.872;37.462;2023-05-02T06:28:40;5.85;;;2.33;;
66384;SDS011;53426;55.872;37.462;2023-05-02T06:31:06;5.20;;;2.33;;
66384;SDS011;53426;55.872;37.462;2023-05-02T06:33:32;8.68;;;2.40;;
66384;SDS011;53426;55.872;37.462;2023-05-02T06:35:58;2.35;;;2.03;;
66384;SDS011;53426;55.872;37.462;2023-05-02T06:38:25;7.97;;;2.08;;
66384;SDS011;53426;55.872;37.462;2023-05-02T06:40:51;2.40;;;1.67;;
66384;SDS011;53426;55.872;37.462;2023-05-02T06:43:17;5.78;;;1.67;;
66384;SDS011;53426;55.872;37.462;2023-05-02T06:46:00;8.02;;;1.98;;
66384;SDS011;53426;55.872;37.462;2023-05-02T06:51:20;5.32;;;2.13;;
66384;SDS011;53426;55.872;37.462;2023-05-02T06:56:58;4.55;;;1.70;;
66384;SDS011;53426;55.872;37.462;2023-05-02T06:59:25;5.03;;;1.77;;
66384;SDS011;53426;55.872;37.462;2023-05-02T07:01:51;6.75;;;1.88;;
66384;SDS011;53426;55.872;37.462;2023-05-02T07:04:17;3.45;;;1.42;;
66384;SDS011;53426;55.872;37.462;2023-05-02T07:06:46;4.13;;;1.50;;
66384;SDS011;53426;55.872;37.462;2023-05-02T07:12:19;2.85;;;1.40;;
66384;SDS011;53426;55.872;37.462;2023-05-02T07:14:47;3.63;;;1.65;;
66384;SDS011;53426;55.872;37.462;2023-05-02T07:17:16;1.88;;;1.63;;
66384;SDS011;53426;55.872;37.462;2023-05-02T07:19:49;9.25;;;1.85;;
66384;SDS011;53426;55.872;37.462;2023-05-02T07:22:15;2.15;;;1.33;;
66384;SDS011;53426;55.872;37.462;2023-05-02T07:24:41;1.77;;;1.38;;
66384;SDS011;53426;55.872;37.462;2023-05-02T07:27:07;3.97;;;1.40;;
66384;SDS011;53426;55.872;37.462;2023-05-02T07:29:34;4.53;;;1.05;;
66384;SDS011;53426;55.872;37.462;2023-05-02T07:32:00;2.03;;;1.10;;
66384;SDS011;53426;55.872;37.462;2023-05-02T07:34:27;2.45;;;1.55;;
66384;SDS011;53426;55.872;37.462;2023-05-02T07:36:53;6.60;;;1.60;;
66384;SDS011;53426;55.872;37.462;2023-05-02T07:39:18;2.47;;;1.40;;
66384;SDS011;53426;55.872;37.462;2023-05-02T07:41:45;5.30;;;1.73;;
66384;SDS011;53426;55.872;37.462;2023-05-02T07:44:11;8.48;;;1.90;;
66384;SDS011;53426;55.872;37.462;2023-05-02T07:46:37;2.67;;;1.83;;
66384;SDS011;53426;55.872;37.462;2023-05-02T07:49:04;2.13;;;1.05;;
66384;SDS011;53426;55.872;37.462;2023-05-02T07:51:30;2.40;;;1.67;;
66384;SDS011;53426;55.872;37.462;2023-05-02T07:54:00;3.28;;;1.30;;
66384;SDS011;53426;55.872;37.462;2023-05-02T07:56:30;9.15;;;1.38;;
66384;SDS011;53426;55.872;37.462;2023-05-02T07:59:21;3.95;;;1.42;;
66384;SDS011;53426;55.872;37.462;2023-05-02T08:01:47;2.80;;;1.17;;
66384;SDS011;53426;55.872;37.462;2023-05-02T08:04:13;2.55;;;1.00;;
66384;SDS011;53426;55.872;37.462;2023-05-02T08:06:40;2.72;;;1.25;;
66384;SDS011;53426;55.872;37.462;2023-05-02T08:09:06;2.75;;;1.13;;
66384;SDS011;53426;55.872;37.462;2023-05-02T08:11:33;3.92;;;1.30;;
66384;SDS011;53426;55.872;37.462;2023-05-02T08:14:02;7.93;;;1.25;;
66384;SDS011;53426;55.872;37.462;2023-05-02T08:16:28;2.28;;;1.20;;
66384;SDS011;53426;55.872;37.462;2023-05-02T08:18:55;4.18;;;1.23;;
66384;SDS011;53426;55.872;37.462;2023-05-02T08:21:21;5.30;;;1.58;;
66384;SDS011;53426;55.872;37.462;2023-05-02T08:30:48;3.10;;;1.20;;
66384;SDS011;53426;55.872;37.462;2023-05-02T08:33:14;1.45;;;1.20;;
66384;SDS011;53426;55.872;37.462;2023-05-02T08:35:41;1.20;;;1.10;;
66384;SDS011;53426;55.872;37.462;2023-05-02T08:38:07;1.33;;;0.95;;
66384;SDS011;53426;55.872;37.462;2023-05-02T08:40:34;1.75;;;1.00;;
66384;SDS011;53426;55.872;37.462;2023-05-02T08:43:04;1.25;;;1.23;;
66384;SDS011;53426;55.872;37.462;2023-05-02T08:45:34;0.95;;;0.93;;
66384;SDS011;53426;55.872;37.462;2023-05-02T08:48:05;3.17;;;1.15;;
66384;SDS011;53426;55.872;37.462;2023-05-02T08:58:00;4.78;;;1.30;;
66384;SDS011;53426;55.872;37.462;2023-05-02T09:00:28;1.75;;;0.93;;
66384;SDS011;53426;55.872;37.462;2023-05-02T09:05:26;1.42;;;0.80;;
66384;SDS011;53426;55.872;37.462;2023-05-02T09:07:55;1.15;;;1.00;;
66384;SDS011;53426;55.872;37.462;2023-05-02T09:10:21;0.88;;;0.73;;
66384;SDS011;53426;55.872;37.462;2023-05-02T09:12:52;0.65;;;0.65;;
66384;SDS011;53426;55.872;37.462;2023-05-02T09:18:07;2.28;;;1.13;;
66384;SDS011;53426;55.872;37.462;2023-05-02T09:23:52;0.65;;;0.65;;
66384;SDS011;53426;55.872;37.462;2023-05-02T09:39:12;2.03;;;0.80;;
66384;SDS011;53426;55.872;37.462;2023-05-02T09:41:41;5.18;;;1.05;;
66384;SDS011;53426;55.872;37.462;2023-05-02T09:44:09;1.95;;;1.08;;
66384;SDS011;53426;55.872;37.462;2023-05-02T09:47:23;2.28;;;1.02;;
66384;SDS011;53426;55.872;37.462;2023-05-02T09:50:05;5.05;;;1.10;;
66384;SDS011;53426;55.872;37.462;2023-05-02T09:52:34;1.25;;;0.98;;
66384;SDS011;53426;55.872;37.462;2023-05-02T09:55:00;2.47;;;1.10;;
66384;SDS011;53426;55.872;37.462;2023-05-02T09:57:38;0.70;;;0.70;;
66384;SDS011;53426;55.872;37.462;2023-05-02T10:01:15;1.33;;;1.23;;
66384;SDS011;53426;55.872;37.462;2023-05-02T10:03:45;5.43;;;1.30;;
66384;SDS011;53426;55.872;37.462;2023-05-02T10:06:17;2.90;;;1.10;;
66384;SDS011;53426;55.872;37.462;2023-05-02T10:08:44;0.98;;;0.98;;
66384;SDS011;53426;55.872;37.462;2023-05-02T10:11:11;1.10;;;1.05;;
66384;SDS011;53426;55.872;37.462;2023-05-02T10:13:39;1.20;;;1.10;;
66384;SDS011;53426;55.872;37.462;2023-05-02T10:16:12;1.10;;;1.00;;
66384;SDS011;53426;55.872;37.462;2023-05-02T10:21:31;1.15;;;1.05;;
66384;SDS011;53426;55.872;37.462;2023-05-02T10:23:59;1.40;;;1.10;;
66384;SDS011;53426;55.872;37.462;2023-05-02T10:26:28;0.90;;;0.90;;
66384;SDS011;53426;55.872;37.462;2023-05-02T10:28:57;1.73;;;1.10;;
66384;SDS011;53426;55.872;37.462;2023-05-02T10:31:24;1.25;;;0.90;;
66384;SDS011;53426;55.872;37.462;2023-05-02T10:33:51;2.70;;;1.17;;
66384;SDS011;53426;55.872;37.462;2023-05-02T10:36:21;1.15;;;1.15;;
66384;SDS011;53426;55.872;37.462;2023-05-02T10:38:48;1.02;;;0.95;;
66384;SDS011;53426;55.872;37.462;2023-05-02T10:41:20;1.60;;;1.20;;
66384;SDS011;53426;55.872;37.462;2023-05-02T10:43:55;1.58;;;1.10;;
66384;SDS011;53426;55.872;37.462;2023-05-02T10:46:29;1.50;;;1.35;;
66384;SDS011;53426;55.872;37.462;2023-05-02T10:51:43;1.45;;;1.10;;
66384;SDS011;53426;55.872;37.462;2023-05-02T10:54:18;4.45;;;1.00;;
66384;SDS011;53426;55.872;37.462;2023-05-02T10:59:41;11.98;;;1.50;;
66384;SDS011;53426;55.872;37.462;2023-05-02T11:04:59;1.20;;;1.10;;
66384;SDS011;53426;55.872;37.462;2023-05-02T11:07:33;1.33;;;1.23;;
66384;SDS011;53426;55.872;37.462;2023-05-02T11:15:14;2.65;;;1.20;;
66384;SDS011;53426;55.872;37.462;2023-05-02T11:18:03;1.75;;;1.35;;
66384;SDS011;53426;55.872;37.462;2023-05-02T11:20:35;1.58;;;1.48;;
66384;SDS011;53426;55.872;37.462;2023-05-02T11:26:01;5.13;;;1.60;;
66384;SDS011;53426;55.872;37.462;2023-05-02T11:28:52;1.27;;;1.20;;
66384;SDS011;53426;55.872;37.462;2023-05-02T11:34:00;1.63;;;1.50;;
66384;SDS011;53426;55.872;37.462;2023-05-02T11:36:37;3.78;;;1.63;;
66384;SDS011;53426;55.872;37.462;2023-05-02T11:39:03;2.03;;;1.30;;
66384;SDS011;53426;55.872;37.462;2023-05-02T11:41:38;1.65;;;1.40;;
66384;SDS011;53426;55.872;37.462;2023-05-02T11:44:05;2.97;;;1.77;;
66384;SDS011;53426;55.872;37.462;2023-05-02T11:46:41;3.33;;;1.88;;
66384;SDS011;53426;55.872;37.462;2023-05-02T11:49:09;5.78;;;1.52;;
66384;SDS011;53426;55.872;37.462;2023-05-02T11:51:38;5.85;;;1.90;;
66384;SDS011;53426;55.872;37.462;2023-05-02T11:54:04;1.40;;;1.30;;
66384;SDS011;53426;55.872;37.462;2023-05-02T11:56:35;2.25;;;1.50;;
66384;SDS011;53426;55.872;37.462;2023-05-02T11:59:04;2.47;;;1.70;;
66384;SDS011;53426;55.872;37.462;2023-05-02T12:01:30;3.47;;;1.50;;
66384;SDS011;53426;55.872;37.462;2023-05-02T12:07:06;4.40;;;1.40;;
66384;SDS011;53426;55.872;37.462;2023-05-02T12:09:32;5.10;;;1.58;;
66384;SDS011;53426;55.872;37.462;2023-05-02T12:11:58;2.15;;;1.40;;
66384;SDS011;53426;55.872;37.462;2023-05-02T12:14:28;2.00;;;1.33;;
66384;SDS011;53426;55.872;37.462;2023-05-02T12:16:54;3.95;;;1.27;;
66384;SDS011;53426;55.872;37.462;2023-05-02T12:19:25;3.42;;;1.27;;
66384;SDS011;53426;55.872;37.462;2023-05-02T12:21:58;3.20;;;1.40;;
66384;SDS011;53426;55.872;37.462;2023-05-02T12:24:29;1.30;;;1.20;;
66384;SDS011;53426;55.872;37.462;2023-05-02T12:27:14;1.25;;;1.17;;
66384;SDS011;53426;55.872;37.462;2023-05-02T12:29:42;5.95;;;1.13;;
66384;SDS011;53426;55.872;37.462;2023-05-02T12:32:09;1.30;;;1.20;;
66384;SDS011;53426;55.872;37.462;2023-05-02T12:34:38;6.75;;;1.50;;
66384;SDS011;53426;55.872;37.462;2023-05-02T12:37:06;2.65;;;1.55;;
66384;SDS011;53426;55.872;37.462;2023-05-02T12:39:42;1.50;;;1.40;;
66384;SDS011;53426;55.872;37.462;2023-05-02T12:42:11;1.33;;;1.23;;
66384;SDS011;53426;55.872;37.462;2023-05-02T12:44:39;1.75;;;1.38;;
66384;SDS011;53426;55.872;37.462;2023-05-02T12:47:07;2.17;;;1.17;;
66384;SDS011;53426;55.872;37.462;2023-05-02T12:52:18;8.65;;;1.50;;
66384;SDS011;53426;55.872;37.462;2023-05-02T12:54:53;3.60;;;1.30;;
66384;SDS011;53426;55.872;37.462;2023-05-02T12:57:39;2.97;;;1.40;;
66384;SDS011;53426;55.872;37.462;2023-05-02T13:00:05;4.95;;;1.42;;
66384;SDS011;53426;55.872;37.462;2023-05-02T13:02:32;4.13;;;1.33;;
66384;SDS011;53426;55.872;37.462;2023-05-02T13:04:58;1.33;;;1.23;;
66384;SDS011;53426;55.872;37.462;2023-05-02T13:07:24;2.53;;;1.17;;
66384;SDS011;53426;55.872;37.462;2023-05-02T13:09:50;9.10;;;1.90;;
66384;SDS011;53426;55.872;37.462;2023-05-02T13:12:16;1.65;;;1.48;;
66384;SDS011;53426;55.872;37.462;2023-05-02T13:14:42;3.60;;;1.50;;
66384;SDS011;53426;55.872;37.462;2023-05-02T13:17:08;1.98;;;1.38;;
66384;SDS011;53426;55.872;37.462;2023-05-02T13:19:35;1.63;;;1.40;;
66384;SDS011;53426;55.872;37.462;2023-05-02T13:22:02;1.55;;;1.40;;
66384;SDS011;53426;55.872;37.462;2023-05-02T13:24:28;4.10;;;1.60;;
66384;SDS011;53426;55.872;37.462;2023-05-02T13:26:54;4.45;;;1.40;;
66384;SDS011;53426;55.872;37.462;2023-05-02T13:29:20;3.53;;;1.58;;
66384;SDS011;53426;55.872;37.462;2023-05-02T13:31:46;1.40;;;1.30;;
66384;SDS011;53426;55.872;37.462;2023-05-02T13:34:12;8.23;;;1.40;;
66384;SDS011;53426;55.872;37.462;2023-05-02T13:36:38;1.33;;;1.20;;
66384;SDS011;53426;55.872;37.462;2023-05-02T13:39:10;1.58;;;1.38;;
66384;SDS011;53426;55.872;37.462;2023-05-02T13:41:38;2.00;;;1.40;;
66384;SDS011;53426;55.872;37.462;2023-05-02T13:44:04;5.38;;;1.52;;
66384;SDS011;53426;55.872;37.462;2023-05-02T13:46:30;1.63;;;1.52;;
66384;SDS011;53426;55.872;37.462;2023-05-02T13:49:12;4.03;;;1.40;;
66384;SDS011;53426;55.872;37.462;2023-05-02T13:51:44;3.97;;;1.77;;
66384;SDS011;53426;55.872;37.462;2023-05-02T13:54:20;3.25;;;1.48;;
66384;SDS011;53426;55.872;37.462;2023-05-02T13:56:48;6.72;;;1.60;;
66384;SDS011;53426;55.872;37.462;2023-05-02T13:59:13;6.82;;;1.80;;
66384;SDS011;53426;55.872;37.462;2023-05-02T14:01:39;3.42;;;1.73;;
66384;SDS011;53426;55.872;37.462;2023-05-02T14:04:09;1.73;;;1.42;;
66384;SDS011;53426;55.872;37.462;2023-05-02T14:06:35;3.10;;;1.52;;
66384;SDS011;53426;55.872;37.462;2023-05-02T14:11:53;1.42;;;1.33;;
66384;SDS011;53426;55.872;37.462;2023-05-02T14:14:19;2.58;;;1.60;;
66384;SDS011;53426;55.872;37.462;2023-05-02T14:16:45;1.92;;;1.73;;
66384;SDS011;53426;55.872;37.462;2023-05-02T14:19:11;3.92;;;1.70;;
66384;SDS011;53426;55.872;37.462;2023-05-02T14:24:57;7.22;;;1.65;;
66384;SDS011;53426;55.872;37.462;2023-05-02T14:27:23;1.50;;;1.40;;
66384;SDS011;53426;55.872;37.462;2023-05-02T14:29:50;1.80;;;1.50;;
66384;SDS011;53426;55.872;37.462;2023-05-02T14:35:31;4.10;;;1.30;;
66384;SDS011;53426;55.872;37.462;2023-05-02T14:38:03;1.92;;;1.80;;
66384;SDS011;53426;55.872;37.462;2023-05-02T14:40:29;4.03;;;1.90;;
66384;SDS011;53426;55.872;37.462;2023-05-02T14:42:55;2.40;;;1.70;;
66384;SDS011;53426;55.872;37.462;2023-05-02T14:45:22;1.60;;;1.50;;
66384;SDS011;53426;55.872;37.462;2023-05-02T14:47:48;2.67;;;1.73;;
66384;SDS011;53426;55.872;37.462;2023-05-02T14:50:15;1.42;;;1.33;;
66384;SDS011;53426;55.872;37.462;2023-05-02T14:52:41;6.50;;;1.63;;
66384;SDS011;53426;55.872;37.462;2023-05-02T14:55:10;4.88;;;1.58;;
66384;SDS011;53426;55.872;37.462;2023-05-02T14:57:36;10.10;;;1.80;;
66384;SDS011;53426;55.872;37.462;2023-05-02T15:00:03;1.70;;;1.60;;
66384;SDS011;53426;55.872;37.462;2023-05-02T15:03:01;2.72;;;1.40;;
66384;SDS011;53426;55.872;37.462;2023-05-02T15:05:27;1.55;;;1.45;;
66384;SDS011;53426;55.872;37.462;2023-05-02T15:07:52;3.53;;;1.52;;
66384;SDS011;53426;55.872;37.462;2023-05-02T15:10:18;2.60;;;1.50;;
66384;SDS011;53426;55.872;37.462;2023-05-02T15:12:44;7.63;;;1.80;;
66384;SDS011;53426;55.872;37.462;2023-05-02T15:15:11;1.45;;;1.38;;
66384;SDS011;53426;55.872;37.462;2023-05-02T15:17:38;7.15;;;1.40;;
66384;SDS011;53426;55.872;37.462;2023-05-02T15:20:04;2.65;;;1.50;;
66384;SDS011;53426;55.872;37.462;2023-05-02T15:22:30;5.38;;;1.95;;
66384;SDS011;53426;55.872;37.462;2023-05-02T15:24:56;3.03;;;1.63;;
66384;SDS011;53426;55.872;37.462;2023-05-02T15:27:22;2.83;;;1.50;;
66384;SDS011;53426;55.872;37.462;2023-05-02T15:29:48;5.55;;;1.80;;
66384;SDS011;53426;55.872;37.462;2023-05-02T15:35:04;2.65;;;1.60;;
66384;SDS011;53426;55.872;37.462;2023-05-02T15:37:32;1.50;;;1.40;;
66384;SDS011;53426;55.872;37.462;2023-05-02T15:39:58;3.92;;;1.50;;
66384;SDS011;53426;55.872;37.462;2023-05-02T15:42:24;1.83;;;1.33;;
66384;SDS011;53426;55.872;37.462;2023-05-02T15:44:50;4.10;;;1.45;;
66384;SDS011;53426;55.872;37.462;2023-05-02T15:47:18;4.30;;;1.70;;
66384;SDS011;53426;55.872;37.462;2023-05-02T15:49:44;5.82;;;1.60;;
66384;SDS011;53426;55.872;37.462;2023-05-02T15:52:09;8.77;;;1.80;;
66384;SDS011;53426;55.872;37.462;2023-05-02T15:54:35;3.28;;;1.55;;
66384;SDS011;53426;55.872;37.462;2023-05-02T15:57:03;2.38;;;1.63;;
66384;SDS011;53426;55.872;37.462;2023-05-02T15:59:30;3.33;;;1.75;;
66384;SDS011;53426;55.872;37.462;2023-05-02T16:01:56;5.10;;;1.92;;
66384;SDS011;53426;55.872;37.462;2023-05-02T16:04:22;1.75;;;1.65;;
66384;SDS011;53426;55.872;37.462;2023-05-02T16:06:49;8.55;;;2.00;;
66384;SDS011;53426;55.872;37.462;2023-05-02T16:09:15;6.43;;;1.83;;
66384;SDS011;53426;55.872;37.462;2023-05-02T16:11:42;4.78;;;1.92;;
66384;SDS011;53426;55.872;37.462;2023-05-02T16:14:08;3.83;;;1.80;;
66384;SDS011;53426;55.872;37.462;2023-05-02T16:16:34;4.72;;;1.77;;
66384;SDS011;53426;55.872;37.462;2023-05-02T16:19:00;5.70;;;1.95;;
66384;SDS011;53426;55.872;37.462;2023-05-02T16:24:21;4.00;;;1.90;;
66384;SDS011;53426;55.872;37.462;2023-05-02T16:26:48;4.95;;;1.80;;
66384;SDS011;53426;55.872;37.462;2023-05-02T16:29:14;4.75;;;1.70;;
66384;SDS011;53426;55.872;37.462;2023-05-02T16:31:45;7.65;;;1.80;;
66384;SDS011;53426;55.872;37.462;2023-05-02T16:34:11;5.20;;;1.90;;
66384;SDS011;53426;55.872;37.462;2023-05-02T16:36:40;4.03;;;1.90;;
66384;SDS011;53426;55.872;37.462;2023-05-02T16:39:10;10.10;;;2.00;;